createdAt,value
2018-01-18T00:02:17.090Z,90.38
2018-01-18T00:04:46.798Z,90.45
2018-01-18T00:07:14.849Z,90.71
2018-01-18T00:09:44.990Z,90.69
2018-01-18T00:12:12.970Z,90.95
2018-01-18T00:14:41.208Z,91.12
2018-01-18T00:17:09.094Z,91.15
2018-01-18T00:19:38.868Z,91.28
2018-01-18T00:22:07.045Z,91.43
2018-01-18T00:24:35.189Z,91.48
2018-01-18T00:27:03.269Z,91.62
2018-01-18T00:29:31.449Z,90.93
2018-01-18T00:32:01.074Z,90.57
2018-01-18T00:34:29.828Z,90.25
2018-01-18T00:36:58.954Z,90.21
2018-01-18T00:39:27.026Z,89.92
2018-01-18T00:41:58.668Z,89.75
2018-01-18T00:44:26.640Z,89.47
2018-01-18T00:46:56.622Z,89.72
2018-01-18T00:49:24.532Z,89.82
2018-01-18T00:51:52.614Z,90.16
2018-01-18T00:54:20.544Z,90.41
2018-01-18T00:56:49.463Z,90.68
2018-01-18T00:59:17.394Z,91.19
2018-01-18T01:01:45.321Z,91.77
2018-01-18T01:04:13.198Z,92.31
2018-01-18T01:06:41.266Z,92.96
2018-01-18T01:09:11.730Z,93.47
2018-01-18T01:11:39.768Z,93.82
2018-01-18T01:14:07.810Z,94.38
2018-01-18T01:16:35.808Z,94.62
2018-01-18T01:19:03.883Z,94.94
2018-01-18T01:21:31.879Z,95.35
2018-01-18T01:23:59.940Z,95.56
2018-01-18T01:26:27.814Z,95.77
2018-01-18T01:28:55.785Z,95.98
2018-01-18T01:31:23.653Z,96.16
2018-01-18T01:33:53.463Z,96.42
2018-01-18T01:36:21.645Z,96.78
2018-01-18T01:38:49.717Z,96.87
2018-01-18T01:41:17.794Z,97.12
2018-01-18T01:43:45.867Z,97.21
2018-01-18T01:46:16.254Z,97.30
2018-01-18T01:48:44.371Z,97.37
2018-01-18T01:51:15.119Z,97.39
2018-01-18T01:53:45.734Z,97.44
2018-01-18T01:56:18.287Z,97.72
2018-01-18T01:58:46.395Z,97.87
2018-01-18T02:01:14.465Z,97.95
2018-01-18T02:03:42.437Z,97.97
2018-01-18T02:06:10.414Z,98.05
2018-01-18T02:08:41.732Z,98.02
2018-01-18T02:11:09.836Z,97.92
2018-01-18T02:13:37.828Z,97.88
2018-01-18T02:16:05.894Z,97.64
2018-01-18T02:18:33.762Z,97.46
2018-01-18T02:21:01.687Z,97.28
2018-01-18T02:23:29.804Z,97.08
2018-01-18T02:25:57.873Z,96.96
2018-01-18T02:28:25.736Z,96.96
2018-01-18T02:30:55.210Z,97.17
2018-01-18T02:33:23.236Z,97.51
2018-01-18T02:35:51.201Z,97.53
2018-01-18T02:38:19.912Z,97.54
2018-01-18T02:40:48.173Z,97.49
2018-01-18T02:43:16.957Z,97.40
2018-01-18T02:45:46.577Z,97.23
2018-01-18T02:48:19.382Z,97.25
2018-01-18T02:50:47.525Z,97.25
2018-01-18T02:53:15.503Z,97.11
2018-01-18T02:55:47.462Z,97.03
2018-01-18T02:58:18.055Z,96.93
2018-01-18T03:00:46.167Z,96.85
2018-01-18T03:03:18.754Z,96.64
2018-01-18T03:05:47.503Z,96.57
2018-01-18T03:08:15.511Z,96.35
2018-01-18T03:10:45.095Z,96.16
2018-01-18T03:13:13.093Z,96.11
2018-01-18T03:15:41.057Z,95.93
2018-01-18T03:18:10.881Z,95.65
2018-01-18T03:20:39.783Z,95.51
2018-01-18T03:23:07.850Z,95.21
2018-01-18T03:25:39.325Z,95.17
2018-01-18T03:28:07.305Z,94.98
2018-01-18T03:30:35.354Z,94.88
2018-01-18T03:33:03.424Z,94.62
2018-01-18T03:35:31.414Z,94.54
2018-01-18T03:37:59.471Z,94.38
2018-01-18T03:40:28.929Z,94.18
2018-01-18T03:42:56.947Z,94.09
2018-01-18T03:45:29.734Z,93.82
2018-01-18T03:47:57.652Z,93.55
2018-01-18T03:50:25.677Z,93.31
2018-01-18T03:52:53.745Z,93.20
2018-01-18T03:55:21.929Z,93.10
2018-01-18T03:57:50.007Z,92.79
2018-01-18T04:00:18.283Z,92.56
2018-01-18T04:02:46.270Z,92.26
2018-01-18T04:05:14.314Z,92.09
2018-01-18T04:07:42.531Z,91.88
2018-01-18T04:10:10.585Z,91.89
2018-01-18T04:12:39.581Z,91.82
2018-01-18T04:15:07.650Z,91.75
2018-01-18T04:17:37.405Z,91.74
2018-01-18T04:20:05.441Z,91.77
2018-01-18T04:22:33.515Z,91.66
2018-01-18T04:25:01.590Z,91.67
2018-01-18T04:27:31.557Z,91.49
2018-01-18T04:30:01.238Z,91.63
2018-01-18T04:32:29.298Z,91.70
2018-01-18T04:34:57.267Z,91.62
2018-01-18T04:37:25.203Z,91.85
2018-01-18T04:39:54.929Z,91.79
2018-01-18T04:42:25.545Z,91.79
2018-01-18T04:44:54.170Z,91.79
2018-01-18T04:47:23.637Z,91.60
2018-01-18T04:49:51.756Z,91.50
2018-01-18T04:52:21.058Z,91.40
2018-01-18T04:54:50.665Z,91.47
2018-01-18T04:57:20.389Z,91.47
2018-01-18T04:59:48.355Z,91.41
2018-01-18T05:02:16.525Z,91.41
2018-01-18T05:04:46.119Z,91.42
2018-01-18T05:07:14.211Z,91.48
2018-01-18T05:09:43.022Z,91.45
2018-01-18T05:12:13.551Z,91.50
2018-01-18T05:14:46.390Z,91.65
2018-01-18T05:17:14.470Z,91.56
2018-01-18T05:19:42.478Z,91.57
2018-01-18T05:22:10.449Z,91.29
2018-01-18T05:24:38.319Z,91.39
2018-01-18T05:27:06.486Z,91.00
2018-01-18T05:29:36.451Z,90.96
2018-01-18T05:32:04.486Z,90.93
2018-01-18T05:34:32.566Z,90.70
2018-01-18T05:37:00.491Z,90.53
2018-01-18T05:39:28.704Z,90.92
2018-01-18T05:41:56.675Z,91.34
2018-01-18T05:44:24.545Z,91.92
2018-01-18T05:46:52.521Z,92.04
2018-01-18T05:49:20.697Z,92.15
2018-01-18T05:51:48.570Z,92.10
2018-01-18T05:54:16.440Z,92.42
2018-01-18T05:56:44.620Z,92.66
2018-01-18T05:59:12.697Z,92.80
2018-01-18T06:01:40.864Z,92.90
2018-01-18T06:04:10.561Z,93.29
2018-01-18T06:06:43.087Z,93.40
2018-01-18T06:09:10.974Z,93.52
2018-01-18T06:11:41.537Z,93.56
2018-01-18T06:14:09.525Z,93.78
2018-01-18T06:16:37.604Z,93.97
2018-01-18T06:19:05.581Z,94.00
2018-01-18T06:21:33.513Z,94.12
2018-01-18T06:24:01.508Z,94.18
2018-01-18T06:26:29.449Z,94.08
2018-01-18T06:29:00.218Z,94.03
2018-01-18T06:31:28.307Z,93.95
2018-01-18T06:33:56.181Z,94.15
2018-01-18T06:36:27.113Z,93.99
2018-01-18T06:38:56.844Z,94.15
2018-01-18T06:41:25.005Z,94.40
2018-01-18T06:43:53.843Z,94.35
2018-01-18T06:46:21.973Z,94.47
2018-01-18T06:48:50.364Z,94.60
2018-01-18T06:51:19.350Z,94.88
2018-01-18T06:53:47.274Z,94.88
2018-01-18T06:56:15.298Z,94.84
2018-01-18T06:58:48.055Z,94.79
2018-01-18T07:01:18.736Z,94.85
2018-01-18T07:03:48.437Z,94.99
2018-01-18T07:06:16.497Z,95.26
2018-01-18T07:08:45.553Z,95.21
2018-01-18T07:13:49.431Z,95.24
2018-01-18T07:16:17.494Z,95.31
2018-01-18T07:18:46.494Z,95.24
2018-01-18T07:21:15.076Z,95.37
2018-01-18T07:23:48.978Z,95.47
2018-01-18T07:26:17.060Z,95.59
2018-01-18T07:28:44.984Z,95.69
2018-01-18T07:31:15.669Z,95.66
2018-01-18T07:33:45.350Z,95.76
2018-01-18T07:36:13.786Z,95.70
2018-01-18T07:38:41.836Z,95.71
2018-01-18T07:41:09.808Z,95.67
2018-01-18T07:43:37.987Z,95.61
2018-01-18T07:46:06.059Z,95.45
2018-01-18T07:48:35.696Z,95.49
2018-01-18T07:51:08.074Z,95.38
2018-01-18T07:53:39.346Z,95.38
2018-01-18T07:56:07.474Z,95.34
2018-01-18T07:58:35.400Z,95.10
2018-01-18T08:01:03.394Z,95.06
2018-01-18T08:28:17.492Z,92.48
2018-01-18T08:30:45.526Z,92.38
2018-01-18T08:33:13.656Z,92.06
2018-01-18T08:35:41.776Z,91.94
2018-01-18T08:38:09.860Z,91.81
2018-01-18T08:40:37.928Z,91.87
2018-01-18T08:43:09.708Z,92.04
2018-01-18T08:45:39.594Z,92.14
2018-01-18T08:48:07.782Z,92.34
2018-01-18T08:50:35.854Z,92.42
2018-01-18T08:53:04.650Z,92.64
2018-01-18T08:55:32.793Z,93.14
2018-01-18T08:58:00.887Z,93.12
2018-01-18T09:00:28.870Z,92.94
2018-01-18T09:02:56.843Z,93.07
2018-01-18T09:05:24.823Z,92.77
2018-01-18T09:07:52.800Z,92.89
2018-01-18T09:10:20.767Z,92.45
2018-01-18T09:12:48.610Z,92.51
2018-01-18T09:15:16.611Z,91.93
2018-01-18T09:17:44.643Z,91.63
2018-01-18T09:20:12.622Z,91.08
2018-01-18T09:22:41.282Z,90.72
2018-01-18T09:25:11.463Z,90.46
2018-01-18T09:27:39.399Z,89.30
2018-01-18T09:30:07.604Z,88.09
2018-01-18T09:32:35.584Z,87.83
2018-01-18T09:37:46.816Z,85.91
2018-01-18T09:40:17.598Z,84.82
2018-01-18T09:42:45.689Z,84.87
2018-01-18T09:45:15.208Z,84.42
2018-01-18T09:47:43.279Z,84.55
2018-01-18T09:50:11.356Z,84.06
2018-01-18T09:52:39.424Z,84.10
2018-01-18T09:55:08.029Z,84.50
2018-01-18T09:57:35.940Z,84.31
2018-01-18T10:00:03.983Z,84.16
2018-01-18T10:02:32.032Z,84.35
2018-01-18T10:10:06.999Z,83.00
2018-01-18T10:12:35.175Z,83.21
2018-01-18T10:15:03.018Z,83.00
2018-01-18T10:17:31.018Z,82.67
2018-01-18T10:19:59.095Z,83.16
2018-01-18T10:22:27.051Z,83.13
2018-01-18T10:24:56.073Z,82.78
2018-01-18T10:27:28.669Z,82.31
2018-01-18T10:29:56.735Z,81.82
2018-01-18T10:32:24.658Z,82.14
2018-01-18T10:34:52.504Z,81.97
2018-01-18T10:37:20.533Z,82.49
2018-01-18T10:39:48.604Z,81.88
2018-01-18T10:42:17.203Z,81.52
2018-01-18T10:44:45.270Z,81.02
2018-01-18T10:47:14.905Z,80.96
2018-01-18T10:49:43.257Z,80.91
2018-01-18T10:54:45.457Z,81.27
2018-01-18T10:57:13.325Z,80.93
2018-01-18T10:59:41.287Z,80.75
2018-01-18T11:02:09.344Z,80.07
2018-01-18T11:04:37.647Z,80.49
2018-01-18T11:07:05.733Z,80.22
2018-01-18T11:09:35.403Z,79.88
2018-01-18T11:12:03.606Z,79.43
2018-01-18T11:14:33.351Z,79.16
2018-01-18T11:17:01.408Z,79.05
2018-01-18T11:19:29.378Z,79.42
2018-01-18T11:21:57.650Z,79.10
2018-01-18T11:27:19.484Z,78.18
2018-01-18T11:29:49.235Z,78.37
2018-01-18T11:34:53.349Z,77.91
2018-01-18T11:37:21.690Z,78.45
2018-01-18T11:39:49.807Z,77.68
2018-01-18T11:42:19.334Z,78.00
2018-01-18T11:44:47.255Z,78.65
2018-01-18T11:47:19.869Z,78.74
2018-01-18T11:49:49.857Z,78.44
2018-01-18T11:52:19.377Z,77.46
2018-01-18T11:54:47.363Z,77.96
2018-01-18T11:59:55.595Z,77.50
2018-01-18T12:02:23.657Z,77.32
2018-01-18T12:04:51.551Z,76.99
2018-01-18T12:07:19.701Z,76.45
2018-01-18T12:09:47.799Z,76.70
2018-01-18T12:12:19.668Z,76.76
2018-01-18T12:14:47.697Z,77.01
2018-01-18T12:17:15.675Z,77.19
2018-01-18T12:19:43.651Z,76.70
2018-01-18T12:22:11.622Z,76.86
2018-01-18T12:24:41.441Z,76.73
2018-01-18T12:27:09.508Z,76.73
2018-01-18T12:29:37.565Z,76.75
2018-01-18T12:32:05.554Z,77.04
2018-01-18T12:34:33.246Z,76.07
2018-01-18T12:37:01.931Z,76.11
2018-01-18T12:39:32.513Z,76.40
2018-01-18T12:42:02.149Z,76.34
2018-01-18T12:44:30.142Z,76.20
2018-01-18T12:46:58.313Z,75.96
2018-01-18T12:49:27.300Z,75.88
2018-01-18T12:51:56.842Z,75.92
2018-01-18T12:54:24.878Z,75.53
2018-01-18T12:56:54.905Z,75.40
2018-01-18T12:59:31.071Z,75.96
2018-01-18T13:02:00.964Z,75.60
2018-01-18T13:04:29.324Z,75.32
2018-01-18T13:06:57.942Z,75.97
2018-01-18T13:09:32.231Z,76.25
2018-01-18T13:12:00.861Z,75.76
2018-01-18T13:14:28.931Z,76.36
2018-01-18T13:16:57.925Z,76.11
2018-01-18T13:19:25.955Z,76.05
2018-01-18T13:21:57.242Z,75.92
2018-01-18T13:24:26.150Z,75.12
2018-01-18T13:26:54.230Z,74.88
2018-01-18T13:29:24.124Z,75.28
2018-01-18T13:31:52.120Z,75.32
2018-01-18T13:34:20.043Z,75.00
2018-01-18T13:36:47.954Z,74.89
2018-01-18T13:39:15.927Z,75.05
2018-01-18T13:41:44.080Z,75.66
2018-01-18T13:44:12.096Z,75.85
2018-01-18T13:46:40.254Z,75.53
2018-01-18T13:49:08.807Z,75.22
2018-01-18T13:51:36.905Z,75.51
2018-01-18T13:54:04.894Z,75.34
2018-01-18T13:56:34.554Z,75.20
2018-01-18T13:59:04.517Z,75.15
2018-01-18T14:01:32.479Z,75.53
2018-01-18T14:04:00.451Z,75.43
2018-01-18T14:06:28.340Z,75.00
2018-01-18T14:08:56.297Z,74.67
2018-01-18T14:11:24.876Z,74.52
2018-01-18T14:13:52.745Z,74.08
2018-01-18T14:16:21.134Z,74.25
2018-01-18T14:18:49.719Z,74.47
2018-01-18T14:21:20.338Z,74.11
2018-01-18T14:23:49.626Z,74.37
2018-01-18T14:26:20.606Z,74.67
2018-01-18T14:28:49.284Z,75.37
2018-01-18T14:31:20.318Z,75.34
2018-01-18T14:33:50.044Z,74.96
2018-01-18T14:36:18.032Z,74.99
2018-01-18T14:38:46.136Z,75.14
2018-01-18T14:41:16.116Z,75.46
2018-01-18T14:43:45.067Z,75.49
2018-01-18T14:46:13.308Z,74.91
2018-01-18T14:48:43.907Z,74.58
2018-01-18T14:51:16.530Z,74.83
2018-01-18T14:53:49.192Z,74.58
2018-01-18T14:56:17.166Z,74.87
2018-01-18T14:58:45.316Z,74.72
2018-01-18T15:01:13.306Z,74.14
2018-01-18T15:03:41.476Z,73.80
2018-01-18T15:06:09.552Z,73.47
2018-01-18T15:08:37.584Z,73.81
2018-01-18T15:11:07.754Z,74.16
2018-01-18T15:13:35.633Z,74.22
2018-01-18T15:16:04.316Z,74.79
2018-01-18T15:18:32.389Z,74.48
2018-01-18T15:21:00.402Z,74.39
2018-01-18T15:23:28.431Z,74.63
2018-01-18T15:25:59.431Z,74.79
2018-01-18T15:28:27.448Z,75.21
2018-01-18T15:30:55.418Z,75.63
2018-01-18T15:33:23.390Z,75.12
2018-01-18T15:35:52.470Z,75.14
2018-01-18T15:38:24.045Z,74.54
2018-01-18T15:40:52.134Z,74.95
2018-01-18T15:43:20.090Z,74.80
2018-01-18T15:45:48.072Z,74.25
2018-01-18T15:48:22.427Z,73.74
2018-01-18T15:50:52.216Z,73.81
2018-01-18T15:53:20.298Z,74.02
2018-01-18T15:55:48.462Z,73.99
2018-01-18T15:58:16.740Z,74.25
2018-01-18T16:00:46.549Z,74.21
2018-01-18T16:03:19.671Z,74.47
2018-01-18T16:05:48.335Z,75.62
2018-01-18T16:08:17.421Z,79.64
2018-01-18T16:10:45.400Z,80.81
2018-01-18T16:13:15.143Z,80.70
2018-01-18T16:18:35.089Z,79.46
2018-01-18T16:21:05.754Z,79.04
2018-01-18T16:23:33.807Z,79.17
2018-01-18T16:26:01.880Z,79.80
2018-01-18T16:28:29.856Z,80.64
2018-01-18T16:30:58.030Z,82.12
2018-01-18T16:33:26.009Z,82.61
2018-01-18T16:35:56.726Z,83.09
2018-01-18T16:38:24.660Z,85.28
2018-01-18T16:40:52.629Z,85.22
2018-01-18T16:43:20.763Z,86.08
2018-01-18T16:45:48.886Z,87.37
2018-01-18T16:48:16.725Z,88.52
2018-01-18T16:50:44.784Z,89.42
2018-01-18T16:53:20.147Z,90.24
2018-01-18T16:55:48.192Z,90.84
2018-01-18T16:58:17.231Z,91.24
2018-01-18T17:00:46.382Z,91.44
2018-01-18T17:03:15.628Z,91.24
2018-01-18T17:05:43.593Z,91.68
2018-01-18T17:08:11.569Z,91.54
2018-01-18T17:10:39.620Z,92.01
2018-01-18T17:13:07.696Z,92.16
2018-01-18T17:15:35.586Z,92.18
2018-01-18T17:18:06.419Z,92.62
2018-01-18T17:20:34.373Z,92.98
2018-01-18T17:23:02.419Z,93.28
2018-01-18T17:25:30.514Z,93.61
2018-01-18T17:28:00.031Z,93.53
2018-01-18T17:30:29.590Z,93.41
2018-01-18T17:32:57.895Z,93.46
2018-01-18T17:35:25.903Z,93.91
2018-01-18T17:37:54.162Z,94.10
2018-01-18T17:40:24.395Z,94.35
2018-01-18T17:42:54.741Z,94.69
2018-01-18T17:45:24.997Z,95.00
2018-01-18T17:47:52.921Z,95.41
2018-01-18T17:50:20.906Z,95.63
2018-01-18T17:52:48.865Z,95.93
2018-01-18T17:55:16.940Z,96.11
2018-01-18T17:57:46.654Z,96.43
2018-01-18T18:00:14.740Z,96.59
2018-01-18T18:02:42.811Z,96.73
2018-01-18T18:05:10.734Z,96.71
2018-01-18T18:07:41.226Z,96.58
2018-01-18T18:10:09.226Z,96.23
2018-01-18T18:12:37.253Z,96.22
2018-01-18T18:15:05.362Z,96.01
2018-01-18T18:17:33.241Z,95.53
2018-01-18T18:20:01.175Z,95.61
2018-01-18T18:22:29.149Z,95.53
2018-01-18T18:24:57.132Z,95.38
2018-01-18T18:27:26.040Z,95.48
2018-01-18T18:29:53.902Z,95.49
2018-01-18T18:32:21.641Z,95.88
2018-01-18T18:34:50.226Z,96.13
2018-01-18T18:37:18.213Z,96.36
2018-01-18T18:39:47.129Z,96.68
2018-01-18T18:42:15.286Z,96.62
2018-01-18T18:44:43.559Z,96.74
2018-01-18T18:47:11.529Z,96.52
2018-01-18T18:49:41.529Z,95.54
2018-01-18T18:52:11.401Z,95.21
2018-01-18T18:54:39.528Z,95.09
2018-01-18T18:57:07.541Z,95.09
2018-01-18T18:59:35.683Z,95.27
2018-01-18T19:02:03.869Z,95.22
2018-01-18T19:04:31.892Z,94.89
2018-01-18T19:06:59.914Z,93.89
2018-01-18T19:09:28.005Z,93.90
2018-01-18T19:11:57.709Z,93.74
2018-01-18T19:14:27.421Z,94.19
2018-01-18T19:16:56.421Z,93.86
2018-01-18T19:19:24.490Z,92.76
2018-01-18T19:21:55.274Z,92.77
2018-01-18T19:24:23.295Z,91.95
2018-01-18T19:26:51.423Z,90.49
2018-01-18T19:29:20.947Z,90.42
2018-01-18T19:31:53.259Z,90.63
2018-01-18T19:34:21.564Z,91.48
2018-01-18T19:36:50.053Z,90.05
2018-01-18T19:39:20.644Z,90.65
2018-01-18T19:41:49.096Z,90.71
2018-01-18T19:46:58.988Z,90.10
2018-01-18T19:49:27.190Z,90.94
2018-01-18T19:51:58.983Z,91.12
2018-01-18T19:54:30.880Z,91.04
2018-01-18T19:57:01.064Z,90.67
2018-01-18T19:59:29.653Z,90.22
2018-01-18T20:01:58.086Z,90.57
2018-01-18T20:04:27.299Z,90.53
2018-01-18T20:07:02.425Z,90.43
2018-01-18T20:09:35.556Z,91.04
2018-01-18T20:12:05.179Z,90.59
2018-01-18T20:14:34.723Z,90.27
2018-01-18T20:17:06.390Z,90.18
2018-01-18T20:19:35.878Z,90.43
2018-01-18T20:22:08.360Z,90.79
2018-01-18T20:24:37.481Z,90.78
2018-01-18T20:27:13.374Z,90.75
2018-01-18T20:29:43.847Z,91.05
2018-01-18T20:32:13.135Z,91.02
2018-01-18T20:34:42.172Z,90.92
2018-01-18T20:37:12.233Z,90.99
2018-01-18T20:39:41.298Z,90.69
2018-01-18T20:42:10.518Z,90.25
2018-01-18T20:44:38.930Z,90.15
2018-01-18T20:47:08.134Z,90.43
2018-01-18T20:49:36.971Z,90.91
2018-01-18T20:52:09.513Z,90.48
2018-01-18T20:54:38.168Z,90.58
2018-01-18T20:57:10.206Z,90.66
2018-01-18T20:59:40.116Z,90.64
2018-01-18T21:02:10.682Z,90.70
2018-01-18T21:04:39.206Z,90.79
2018-01-18T21:07:08.789Z,91.02
2018-01-18T21:09:37.833Z,91.42
2018-01-18T21:12:08.800Z,91.20
2018-01-18T21:14:38.073Z,91.53
2018-01-18T21:17:07.286Z,91.51
2018-01-18T21:19:35.547Z,91.52
2018-01-18T21:22:06.172Z,91.53
2018-01-18T21:24:34.312Z,91.56
2018-01-18T21:27:03.459Z,91.68
2018-01-18T21:29:31.670Z,91.63
2018-01-18T21:32:00.645Z,91.66
2018-01-18T21:34:29.499Z,91.83
2018-01-18T21:36:58.457Z,91.56
2018-01-18T21:39:28.434Z,91.94
2018-01-18T21:41:56.712Z,91.80
2018-01-18T21:44:24.885Z,92.12
2018-01-18T21:46:55.519Z,92.17
2018-01-18T21:49:24.491Z,92.11
2018-01-18T21:51:53.596Z,92.15
2018-01-18T21:54:21.708Z,92.18
2018-01-18T21:56:49.828Z,92.13
2018-01-18T21:59:19.553Z,92.03
2018-01-18T22:01:47.735Z,92.28
2018-01-18T22:04:18.407Z,92.21
2018-01-18T22:06:48.235Z,92.35
2018-01-18T22:09:16.467Z,92.48
2018-01-18T22:11:44.531Z,92.39
2018-01-18T22:14:12.826Z,92.27
2018-01-18T22:16:40.953Z,92.53
2018-01-18T22:19:09.090Z,92.59
2018-01-18T22:21:38.839Z,92.66
2018-01-18T22:24:07.629Z,92.56
2018-01-18T22:26:35.467Z,92.66
2018-01-18T22:29:03.355Z,92.81
2018-01-18T22:31:31.276Z,92.87
2018-01-18T22:33:59.405Z,92.98
2018-01-18T22:36:31.053Z,92.87
2018-01-18T22:38:58.929Z,92.96
2018-01-18T22:41:31.297Z,92.81
2018-01-18T22:43:59.369Z,92.85
2018-01-18T22:46:28.082Z,92.71
2018-01-18T22:48:56.058Z,92.76
2018-01-18T22:51:24.097Z,92.74
2018-01-18T22:53:54.970Z,92.48
2018-01-18T22:56:26.181Z,92.78
2018-01-18T22:58:56.921Z,92.57
2018-01-18T23:01:27.649Z,92.68
2018-01-18T23:03:58.289Z,92.68
2018-01-18T23:06:26.351Z,92.71
2018-01-18T23:08:54.449Z,92.64
2018-01-18T23:11:22.511Z,92.65
2018-01-18T23:13:50.490Z,92.62
2018-01-18T23:16:18.473Z,92.88
2018-01-18T23:18:46.429Z,92.75
2018-01-18T23:21:14.825Z,92.74
2018-01-18T23:23:42.998Z,92.81
2018-01-18T23:26:12.579Z,92.83
2018-01-18T23:28:41.428Z,92.64
2018-01-18T23:31:10.231Z,92.11
2018-01-18T23:33:38.259Z,92.11
2018-01-18T23:36:06.436Z,91.65
2018-01-18T23:38:34.327Z,91.67
2018-01-18T23:41:02.383Z,91.65
2018-01-18T23:43:30.353Z,91.57
2018-01-18T23:46:00.187Z,91.63
2018-01-18T23:48:30.712Z,91.64
2018-01-18T23:50:58.779Z,91.67
2018-01-18T23:53:26.760Z,91.55
2018-01-18T23:55:56.445Z,91.48
2018-01-18T23:58:24.451Z,91.46
